Time;durP1;ratioP1;P1;durP2;ratioP2;P2;SDS_P1;SDS_P2;PMS_P1;PMS_P2;Temp;Humidity;BMP_temperature;BMP_pressure;BME280_temperature;BME280_humidity;BME280_pressure;Samples;Min_cycle;Max_cycle;Signal;HPM_P1;HPM_P2
2022/04/13 00:02:54;;;;;;;7.30;5.30;;;17.60;69.10;;;;;;10180483;28;20170;-62
2022/04/13 00:07:44;;;;;;;10.07;4.93;;;17.60;69.40;;;;;;10175854;28;20462;-63
2022/04/13 00:12:36;;;;;;;8.35;5.07;;;17.50;69.50;;;;;;10187642;28;20043;-63
2022/04/13 00:17:26;;;;;;;8.43;5.25;;;17.50;69.80;;;;;;10198313;28;20044;-63
2022/04/13 00:22:17;;;;;;;9.23;5.55;;;17.50;70.20;;;;;;10196936;28;20334;-62
2022/04/13 00:27:08;;;;;;;9.27;4.85;;;17.40;70.50;;;;;;10180002;28;20024;-63
2022/04/13 00:31:58;;;;;;;10.80;5.20;;;17.40;71.00;;;;;;10175751;28;20040;-63
2022/04/13 00:36:49;;;;;;;11.23;5.75;;;17.30;71.30;;;;;;10170856;28;20349;-63
2022/04/13 00:41:40;;;;;;;6.93;4.30;;;17.20;71.80;;;;;;10177195;28;20032;-63
2022/04/13 00:46:31;;;;;;;7.85;4.70;;;17.20;72.00;;;;;;10187487;28;20108;-62
2022/04/13 00:51:22;;;;;;;6.93;3.97;;;17.10;72.40;;;;;;10196161;28;20382;-63
2022/04/13 00:56:15;;;;;;;8.82;4.70;;;17.10;72.70;;;;;;10205077;28;20107;-63
2022/04/13 01:01:07;;;;;;;5.85;5.25;;;17.00;73.00;;;;;;10197584;28;20120;-62
2022/04/13 01:05:58;;;;;;;6.32;4.80;;;17.00;73.50;;;;;;10163947;28;20466;-63
2022/04/13 01:10:49;;;;;;;7.32;3.95;;;17.00;73.60;;;;;;10172714;28;20041;-64
2022/04/13 01:15:41;;;;;;;8.30;3.00;;;17.00;73.90;;;;;;10182642;28;20059;-64
2022/04/13 01:20:31;;;;;;;5.18;3.30;;;17.00;74.00;;;;;;10198035;28;20036;-63
2022/04/13 01:25:22;;;;;;;7.53;4.45;;;17.00;74.30;;;;;;10173990;28;20023;-62
2022/04/13 01:30:14;;;;;;;4.85;3.53;;;16.90;74.50;;;;;;10168940;28;20507;-63
2022/04/13 01:35:06;;;;;;;3.42;2.72;;;16.90;74.60;;;;;;10159846;28;20496;-64
2022/04/13 01:39:57;;;;;;;5.60;3.00;;;16.90;74.80;;;;;;10170265;28;20505;-63
2022/04/13 01:44:48;;;;;;;4.78;3.28;;;16.90;74.80;;;;;;10179596;28;20031;-63
2022/04/13 01:49:39;;;;;;;6.75;2.80;;;16.90;75.00;;;;;;10178255;28;20043;-63
2022/04/13 01:54:29;;;;;;;5.82;2.72;;;16.80;75.10;;;;;;10165139;28;20081;-62
2022/04/13 01:59:20;;;;;;;5.65;2.53;;;16.80;75.20;;;;;;10189846;28;20035;-63
2022/04/13 02:04:28;;;;;;;6.45;2.60;;;16.70;75.30;;;;;;10165860;28;20035;-63
2022/04/13 02:09:19;;;;;;;2.97;2.45;;;16.70;75.40;;;;;;10165994;28;20059;-63
2022/04/13 02:14:10;;;;;;;4.43;2.53;;;16.70;75.30;;;;;;10178283;28;20020;-63
2022/04/13 02:19:01;;;;;;;3.85;2.42;;;16.60;75.30;;;;;;10188171;28;20430;-63
2022/04/13 02:23:51;;;;;;;3.10;2.10;;;16.60;75.40;;;;;;10168413;28;20036;-62
2022/04/13 02:28:42;;;;;;;3.40;2.33;;;16.50;75.50;;;;;;10176552;28;20052;-63
2022/04/13 02:33:33;;;;;;;4.32;2.53;;;16.40;75.60;;;;;;10152750;28;20064;-62
2022/04/13 02:38:23;;;;;;;9.80;2.75;;;16.40;75.50;;;;;;10165592;28;20028;-63
2022/04/13 02:43:14;;;;;;;4.13;2.97;;;16.50;75.60;;;;;;10188908;28;20035;-62
2022/04/13 02:48:05;;;;;;;4.32;3.05;;;16.40;75.60;;;;;;10169597;28;20150;-63
2022/04/13 02:52:56;;;;;;;4.05;2.17;;;16.50;75.70;;;;;;10182732;28;20023;-63
2022/04/13 02:57:47;;;;;;;6.80;2.40;;;16.40;75.80;;;;;;10182682;28;20119;-63
2022/04/13 03:02:41;;;;;;;3.67;1.98;;;16.40;75.80;;;;;;10159076;28;20024;-63
2022/04/13 03:07:32;;;;;;;6.53;2.90;;;16.40;75.90;;;;;;10161870;28;20025;-63
2022/04/13 03:12:23;;;;;;;2.72;2.47;;;16.40;75.80;;;;;;10168956;28;20032;-63
2022/04/13 03:17:14;;;;;;;4.22;2.40;;;16.30;75.90;;;;;;10162655;28;20023;-64
2022/04/13 03:22:04;;;;;;;3.60;2.45;;;16.30;75.70;;;;;;10183614;28;20038;-64
2022/04/13 03:26:55;;;;;;;6.07;2.53;;;16.30;75.70;;;;;;10173036;28;20032;-64
2022/04/13 03:31:46;;;;;;;6.47;2.63;;;16.30;75.70;;;;;;10122986;28;20048;-62
2022/04/13 03:36:41;;;;;;;5.15;2.05;;;16.20;75.70;;;;;;10145820;28;20080;-62
2022/04/13 03:41:36;;;;;;;5.63;2.88;;;16.20;75.60;;;;;;10172651;28;20514;-64
2022/04/13 03:46:27;;;;;;;5.93;2.83;;;16.20;75.70;;;;;;10151608;28;20047;-63
2022/04/13 03:51:17;;;;;;;3.92;2.38;;;16.10;75.70;;;;;;10181375;28;20592;-62
2022/04/13 03:56:08;;;;;;;4.00;2.85;;;16.00;75.90;;;;;;10184438;28;20107;-63
2022/04/13 04:00:58;;;;;;;4.40;3.15;;;16.10;75.90;;;;;;10162167;28;20441;-63
2022/04/13 04:05:49;;;;;;;3.80;2.65;;;15.90;76.00;;;;;;10155442;28;20402;-62
2022/04/13 04:10:40;;;;;;;6.30;2.70;;;15.80;76.20;;;;;;10160169;28;20040;-63
2022/04/13 04:15:31;;;;;;;5.18;2.63;;;15.80;76.20;;;;;;10170857;28;20119;-62
2022/04/13 04:20:22;;;;;;;7.53;3.42;;;15.70;76.30;;;;;;10170629;28;20494;-63
2022/04/13 04:25:12;;;;;;;7.40;3.28;;;15.70;76.40;;;;;;10156168;28;20039;-64
2022/04/13 04:30:04;;;;;;;2.85;2.00;;;15.70;76.50;;;;;;10176291;28;20455;-62
2022/04/13 04:34:55;;;;;;;4.70;2.60;;;15.80;76.60;;;;;;10155191;28;20425;-62
2022/04/13 04:39:45;;;;;;;5.68;2.67;;;15.70;76.70;;;;;;10172421;28;20043;-63
2022/04/13 04:44:36;;;;;;;7.07;3.10;;;15.70;77.00;;;;;;10190202;28;20027;-63
2022/04/13 04:49:27;;;;;;;5.38;3.40;;;15.60;77.10;;;;;;10169349;28;20154;-63
2022/04/13 04:54:17;;;;;;;6.57;2.90;;;15.60;77.30;;;;;;10185777;28;20575;-62
2022/04/13 04:59:08;;;;;;;6.90;3.20;;;15.50;77.50;;;;;;10193159;28;20541;-63
2022/04/13 05:03:59;;;;;;;7.00;3.53;;;15.60;77.60;;;;;;10175937;28;20027;-63
2022/04/13 05:08:51;;;;;;;8.77;4.70;;;15.50;78.10;;;;;;10174731;28;20031;-63
2022/04/13 05:13:45;;;;;;;6.80;4.20;;;15.50;78.30;;;;;;10165880;28;20498;-63
2022/04/13 05:18:36;;;;;;;9.70;3.85;;;15.50;78.60;;;;;;10180852;28;20024;-63
2022/04/13 05:23:26;;;;;;;10.23;4.50;;;15.50;78.90;;;;;;10173675;28;20032;-62
2022/04/13 05:28:17;;;;;;;6.70;4.07;;;15.50;79.00;;;;;;10168205;28;20114;-63
2022/04/13 05:33:08;;;;;;;10.15;4.72;;;15.50;79.30;;;;;;10150897;28;20028;-63
2022/04/13 05:38:01;;;;;;;7.72;4.00;;;15.50;79.50;;;;;;10165510;28;20062;-65
2022/04/13 05:42:55;;;;;;;8.93;3.83;;;15.60;80.20;;;;;;10179303;28;20507;-64
2022/04/13 05:47:46;;;;;;;5.47;4.30;;;15.70;79.60;;;;;;10176901;28;20590;-62
2022/04/13 05:52:37;;;;;;;7.20;5.15;;;15.70;80.00;;;;;;10172099;28;20405;-64
2022/04/13 05:57:28;;;;;;;6.50;4.80;;;15.80;80.20;;;;;;10198366;28;20066;-63
2022/04/13 06:02:19;;;;;;;8.27;5.05;;;15.80;80.20;;;;;;10179607;28;20024;-62
2022/04/13 06:07:09;;;;;;;7.20;4.97;;;15.80;80.50;;;;;;10158678;28;20027;-62
2022/04/13 06:12:00;;;;;;;6.07;3.65;;;15.90;80.60;;;;;;10176813;28;20036;-64
2022/04/13 06:16:51;;;;;;;5.82;3.30;;;16.00;80.60;;;;;;10170336;28;20269;-65
2022/04/13 06:21:41;;;;;;;6.25;3.90;;;16.00;80.40;;;;;;10166519;28;20421;-63
2022/04/13 06:26:32;;;;;;;5.60;3.40;;;16.10;80.40;;;;;;10174714;28;20043;-63
2022/04/13 06:31:23;;;;;;;5.80;3.80;;;16.20;80.40;;;;;;10167602;28;20087;-63
2022/04/13 06:36:13;;;;;;;8.15;3.83;;;16.20;80.30;;;;;;10161636;28;20030;-61
2022/04/13 06:41:04;;;;;;;6.57;3.45;;;16.30;80.30;;;;;;10139061;28;20035;-60
2022/04/13 06:45:54;;;;;;;6.78;2.67;;;16.30;80.10;;;;;;10163007;28;20040;-61
2022/04/13 06:50:45;;;;;;;6.55;4.13;;;16.40;79.80;;;;;;10154256;28;20043;-63
2022/04/13 06:55:39;;;;;;;3.63;2.88;;;16.50;79.70;;;;;;10145243;28;20616;-62
2022/04/13 07:00:30;;;;;;;3.70;2.97;;;16.50;79.50;;;;;;10164543;28;20017;-62
2022/04/13 07:05:20;;;;;;;6.18;2.78;;;16.60;79.50;;;;;;10165717;28;20035;-62
2022/04/13 07:10:11;;;;;;;6.05;3.20;;;16.60;79.40;;;;;;10162884;28;20031;-62
2022/04/13 07:15:03;;;;;;;11.88;3.70;;;16.60;79.40;;;;;;10180411;28;20501;-64
2022/04/13 07:19:53;;;;;;;5.72;2.33;;;16.70;79.10;;;;;;10186054;28;20539;-63
2022/04/13 07:24:44;;;;;;;4.30;3.40;;;16.80;78.90;;;;;;10178592;28;20031;-65
2022/04/13 07:29:35;;;;;;;5.00;3.03;;;16.90;78.70;;;;;;10178262;28;20234;-64
2022/04/13 07:34:25;;;;;;;5.80;3.67;;;17.00;78.50;;;;;;10171647;28;20031;-65
2022/04/13 07:39:16;;;;;;;4.25;3.03;;;17.10;78.20;;;;;;10167071;28;20138;-63
2022/04/13 07:44:07;;;;;;;11.38;5.75;;;17.20;78.00;;;;;;10172924;28;20032;-61
2022/04/13 07:48:58;;;;;;;10.13;5.00;;;17.40;77.80;;;;;;10137302;28;20234;-61
2022/04/13 07:53:48;;;;;;;8.38;4.47;;;17.60;77.50;;;;;;10171359;28;20126;-62
2022/04/13 07:58:39;;;;;;;9.82;5.95;;;17.80;77.10;;;;;;10170173;28;20023;-60
2022/04/13 08:03:30;;;;;;;6.00;3.97;;;17.90;77.00;;;;;;10170470;28;20035;-59
2022/04/13 08:08:21;;;;;;;7.43;4.68;;;18.10;76.70;;;;;;10166386;28;20024;-60
2022/04/13 08:13:12;;;;;;;7.38;3.63;;;18.30;76.50;;;;;;10184051;28;20051;-60
2022/04/13 08:18:02;;;;;;;11.50;4.05;;;18.50;75.90;;;;;;10172065;28;20056;-62
2022/04/13 08:22:53;;;;;;;10.23;5.10;;;18.60;75.60;;;;;;10141315;28;20528;-59
2022/04/13 08:27:44;;;;;;;6.05;3.70;;;18.70;75.40;;;;;;10179726;28;20073;-62
2022/04/13 08:32:36;;;;;;;8.68;4.65;;;18.80;75.20;;;;;;10143345;28;20402;-65
2022/04/13 08:37:27;;;;;;;7.60;3.88;;;18.90;75.00;;;;;;10165677;28;20106;-62
2022/04/13 08:42:47;;;;;;;6.32;3.45;;;19.00;74.70;;;;;;10158793;28;20118;-62
2022/04/13 08:47:43;;;;;;;6.90;3.53;;;19.10;74.10;;;;;;10181139;28;20130;-61
2022/04/13 08:52:36;;;;;;;10.07;3.08;;;19.30;73.90;;;;;;10172816;28;20039;-60
2022/04/13 08:57:29;;;;;;;3.30;2.35;;;19.20;73.70;;;;;;10178868;28;20028;-61
2022/04/13 09:02:51;;;;;;;4.38;3.17;;;19.40;73.20;;;;;;10163672;28;20078;-63
2022/04/13 09:07:45;;;;;;;6.63;2.35;;;19.60;72.30;;;;;;10159954;28;20035;-65
2022/04/13 09:12:39;;;;;;;8.50;3.03;;;19.60;72.10;;;;;;10178608;28;20127;-63
2022/04/13 09:17:30;;;;;;;5.95;2.08;;;19.70;71.60;;;;;;10175303;28;20047;-62
2022/04/13 09:22:22;;;;;;;6.60;2.90;;;19.70;71.20;;;;;;10165200;28;20043;-63
2022/04/13 09:27:14;;;;;;;3.80;2.25;;;19.80;70.70;;;;;;10160656;28;20139;-63
2022/04/13 09:32:05;;;;;;;8.10;2.88;;;19.90;70.20;;;;;;10170451;28;20040;-59
2022/04/13 09:36:56;;;;;;;4.13;3.28;;;20.00;69.80;;;;;;10170156;28;20059;-60
2022/04/13 09:41:47;;;;;;;5.65;2.22;;;20.00;69.50;;;;;;10147055;28;20056;-60
2022/04/13 09:46:37;;;;;;;6.65;2.22;;;20.10;68.70;;;;;;10149123;28;20080;-61
2022/04/13 09:51:39;;;;;;;4.78;2.47;;;20.30;68.20;;;;;;10159313;28;20064;-61
2022/04/13 09:56:33;;;;;;;6.18;2.95;;;20.40;67.60;;;;;;10168724;28;20701;-61
2022/04/13 10:01:24;;;;;;;6.70;2.95;;;20.60;67.30;;;;;;10161371;28;20039;-59
2022/04/13 10:06:27;;;;;;;3.80;2.65;;;20.70;67.00;;;;;;10153961;28;20035;-60
2022/04/13 10:11:17;;;;;;;5.38;1.92;;;20.90;66.30;;;;;;10172835;28;20131;-59
2022/04/13 10:16:11;;;;;;;5.60;1.90;;;21.00;66.10;;;;;;10168579;28;20073;-59
2022/04/13 10:21:01;;;;;;;5.03;2.25;;;21.00;65.50;;;;;;10159296;28;20115;-61
2022/04/13 10:26:09;;;;;;;2.08;1.77;;;20.90;64.60;;;;;;10173155;28;20107;-60
2022/04/13 10:31:08;;;;;;;4.70;2.22;;;21.10;63.50;;;;;;10158995;28;20427;-59
2022/04/13 10:35:58;;;;;;;5.70;2.33;;;21.30;63.20;;;;;;10162377;28;20502;-59
2022/04/13 10:40:51;;;;;;;5.28;1.98;;;21.40;62.80;;;;;;10176723;28;20038;-60
2022/04/13 10:45:46;;;;;;;3.70;2.10;;;21.40;62.10;;;;;;10164996;28;20251;-61
2022/04/13 10:50:43;;;;;;;5.90;2.20;;;21.50;61.30;;;;;;10207186;28;20028;-60
2022/04/13 10:55:35;;;;;;;4.43;1.55;;;21.70;60.80;;;;;;10176597;28;20660;-60
2022/04/13 11:00:31;;;;;;;7.32;2.05;;;21.90;60.10;;;;;;10161717;28;20897;-60
2022/04/13 11:05:25;;;;;;;6.88;1.95;;;21.90;59.50;;;;;;10155062;28;20027;-60
2022/04/13 11:10:19;;;;;;;3.42;1.80;;;22.00;58.90;;;;;;10177223;28;20047;-62
2022/04/13 11:15:10;;;;;;;5.10;1.90;;;21.90;58.40;;;;;;10174565;28;20748;-60
2022/04/13 11:20:22;;;;;;;3.13;2.30;;;22.00;57.90;;;;;;10168707;28;20115;-60
2022/04/13 11:26:02;;;;;;;4.53;2.08;;;22.20;56.50;;;;;;10159305;28;20126;-60
2022/04/13 11:31:00;;;;;;;3.60;1.73;;;22.50;56.30;;;;;;10156767;28;20051;-59
2022/04/13 11:35:54;;;;;;;4.85;2.25;;;22.30;56.30;;;;;;10155088;28;20436;-60
2022/04/13 11:41:05;;;;;;;;;;;22.60;55.90;;;;;;10161480;28;20593;-60
2022/04/13 11:45:59;;;;;;;6.00;2.42;;;22.70;55.30;;;;;;10154367;28;20503;-61
2022/04/13 11:51:10;;;;;;;4.80;2.20;;;22.80;55.30;;;;;;10186463;28;20432;-60
2022/04/13 11:56:00;;;;;;;5.30;2.38;;;22.90;54.80;;;;;;10146057;28;20670;-60
2022/04/13 12:01:08;;;;;;;4.28;2.72;;;23.10;54.40;;;;;;10156482;28;20122;-60
2022/04/13 12:06:02;;;;;;;5.13;3.40;;;23.10;53.20;;;;;;10162589;28;20051;-60
2022/04/13 12:10:55;;;;;;;7.97;2.83;;;23.20;53.80;;;;;;10169095;28;20082;-60
2022/04/13 12:15:52;;;;;;;5.73;2.37;;;23.40;53.20;;;;;;10167561;28;20387;-60
2022/04/13 12:20:43;;;;;;;4.60;2.90;;;23.60;52.90;;;;;;10161824;28;20612;-66
2022/04/13 12:25:42;;;;;;;7.38;3.20;;;23.70;52.60;;;;;;10155309;28;20036;-63
2022/04/13 12:30:33;;;;;;;4.93;2.70;;;24.30;52.10;;;;;;10128233;28;20055;-61
2022/04/13 12:35:23;;;;;;;7.50;3.63;;;24.50;51.90;;;;;;10170895;28;20401;-62
2022/04/13 12:40:22;;;;;;;6.57;3.80;;;25.00;51.70;;;;;;10173982;28;20047;-62
2022/04/13 12:45:13;;;;;;;7.80;3.95;;;25.20;51.40;;;;;;10166129;28;20042;-63
2022/04/13 12:50:04;;;;;;;8.30;3.35;;;25.40;51.70;;;;;;10177672;28;20032;-65
2022/04/13 12:55:01;;;;;;;8.60;3.50;;;25.80;51.50;;;;;;10172670;28;20044;-63
2022/04/13 12:59:52;;;;;;;6.43;3.15;;;25.80;50.80;;;;;;10165779;28;20406;-62
2022/04/13 13:04:45;;;;;;;6.57;2.72;;;26.30;51.50;;;;;;10180437;28;20546;-63
2022/04/13 13:09:39;;;;;;;6.45;2.33;;;26.90;50.90;;;;;;10183238;28;20498;-62
2022/04/13 13:14:37;;;;;;;4.15;1.73;;;27.00;49.70;;;;;;10193064;28;20100;-63
2022/04/13 13:19:33;;;;;;;5.53;2.20;;;27.50;48.80;;;;;;10181878;28;20522;-65
2022/04/13 13:24:29;;;;;;;4.32;1.73;;;28.30;47.10;;;;;;10152946;28;20043;-62
2022/04/13 13:29:19;;;;;;;3.35;1.60;;;29.20;45.50;;;;;;10166856;28;20044;-63
2022/04/13 13:34:10;;;;;;;8.90;1.30;;;29.00;44.70;;;;;;10169787;28;20035;-62
2022/04/13 13:39:01;;;;;;;4.78;1.52;;;30.00;43.60;;;;;;10174683;28;20092;-66
2022/04/13 13:43:51;;;;;;;6.32;1.42;;;30.70;42.80;;;;;;10175115;28;20034;-62
2022/04/13 13:48:43;;;;;;;4.37;2.20;;;31.60;41.20;;;;;;10185000;28;20077;-63
2022/04/13 13:53:34;;;;;;;3.38;1.48;;;31.60;40.30;;;;;;10189248;28;20036;-63
2022/04/13 13:58:25;;;;;;;6.43;1.40;;;31.80;40.10;;;;;;10149630;28;20028;-63
2022/04/13 14:03:16;;;;;;;5.07;1.67;;;32.00;39.30;;;;;;10179758;28;20131;-63
2022/04/13 14:08:09;;;;;;;3.53;1.42;;;32.50;39.20;;;;;;10175912;28;20604;-67
2022/04/13 14:13:00;;;;;;;2.60;1.60;;;32.20;38.50;;;;;;10183820;28;20024;-61
2022/04/13 14:17:51;;;;;;;6.78;1.58;;;32.40;37.90;;;;;;10194419;28;20043;-60
2022/04/13 14:22:44;;;;;;;4.90;2.00;;;32.20;37.20;;;;;;10164322;28;20115;-61
2022/04/13 14:27:35;;;;;;;4.10;1.17;;;32.00;37.10;;;;;;10158706;28;20516;-63
2022/04/13 14:32:26;;;;;;;6.07;1.83;;;31.80;37.00;;;;;;10175123;28;20042;-62
2022/04/13 14:37:17;;;;;;;6.05;2.03;;;31.90;36.70;;;;;;10172292;28;20469;-63
2022/04/13 14:42:08;;;;;;;4.37;1.83;;;32.30;36.50;;;;;;10154524;28;20051;-61
2022/04/13 14:46:59;;;;;;;6.80;1.80;;;32.50;36.00;;;;;;10172045;28;20031;-58
2022/04/13 14:51:49;;;;;;;6.87;1.93;;;32.50;35.80;;;;;;10195342;28;20032;-62
2022/04/13 14:56:40;;;;;;;3.20;1.47;;;32.40;35.60;;;;;;10184177;28;20031;-59
2022/04/13 15:01:31;;;;;;;7.38;1.95;;;31.90;35.70;;;;;;10170635;28;20558;-61
2022/04/13 15:06:24;;;;;;;3.55;1.95;;;32.10;35.40;;;;;;10176799;28;20024;-62
2022/04/13 15:11:15;;;;;;;2.33;1.13;;;32.50;34.90;;;;;;10180361;28;20099;-63
2022/04/13 15:16:06;;;;;;;4.17;1.80;;;32.50;34.60;;;;;;10169155;28;20044;-62
2022/04/13 15:20:57;;;;;;;3.50;1.80;;;32.60;34.50;;;;;;10204369;28;20168;-63
2022/04/13 15:25:47;;;;;;;5.68;1.60;;;33.50;34.20;;;;;;10157264;28;20413;-62
2022/04/13 15:30:39;;;;;;;5.85;1.70;;;33.20;34.00;;;;;;10166407;28;20049;-61
2022/04/13 15:35:30;;;;;;;3.73;1.80;;;33.40;34.40;;;;;;10158321;28;20374;-60
2022/04/13 15:40:20;;;;;;;4.13;1.98;;;33.00;33.50;;;;;;10162727;28;20293;-61
2022/04/13 15:45:11;;;;;;;6.28;1.80;;;32.90;33.70;;;;;;10155822;28;20023;-59
2022/04/13 15:50:03;;;;;;;2.28;1.25;;;33.00;33.10;;;;;;10150183;28;20234;-61
2022/04/13 15:54:57;;;;;;;3.45;1.50;;;33.20;33.00;;;;;;10154062;28;20036;-64
2022/04/13 15:59:48;;;;;;;6.95;3.55;;;33.20;32.80;;;;;;10154227;28;20381;-61
2022/04/13 16:04:39;;;;;;;4.50;1.77;;;33.40;32.40;;;;;;10161222;28;20328;-61
2022/04/13 16:09:29;;;;;;;4.15;2.03;;;32.90;32.60;;;;;;10160685;28;20085;-61
2022/04/13 16:14:20;;;;;;;7.68;2.75;;;31.90;33.40;;;;;;10178338;28;20482;-62
2022/04/13 16:19:14;;;;;;;4.05;1.45;;;32.30;33.10;;;;;;10158043;28;20109;-60
2022/04/13 16:24:05;;;;;;;8.00;3.00;;;33.00;32.40;;;;;;10148949;28;20042;-61
2022/04/13 16:28:56;;;;;;;4.28;2.20;;;33.00;32.40;;;;;;10164192;28;20055;-59
2022/04/13 16:33:47;;;;;;;4.93;1.92;;;33.00;32.80;;;;;;10165510;28;20025;-62
2022/04/13 16:38:40;;;;;;;2.67;1.60;;;31.70;33.30;;;;;;10159478;28;20027;-59
2022/04/13 16:43:31;;;;;;;6.05;1.98;;;30.20;34.50;;;;;;10171547;28;20038;-60
2022/04/13 16:48:22;;;;;;;2.85;1.65;;;30.00;34.30;;;;;;10195096;28;20189;-60
2022/04/13 16:53:12;;;;;;;2.45;1.25;;;29.90;34.60;;;;;;10201850;28;20106;-61
2022/04/13 16:58:03;;;;;;;3.05;1.33;;;29.20;35.30;;;;;;10144977;28;20501;-60
2022/04/13 17:02:54;;;;;;;2.80;1.30;;;28.80;35.70;;;;;;10176109;28;20124;-60
2022/04/13 17:07:44;;;;;;;5.38;2.22;;;27.70;37.10;;;;;;10195698;28;20378;-60
2022/04/13 17:12:36;;;;;;;6.20;2.47;;;26.90;37.70;;;;;;10201595;28;20031;-60
2022/04/13 17:17:27;;;;;;;3.72;1.48;;;26.30;38.50;;;;;;10199288;28;20645;-59
2022/04/13 17:22:17;;;;;;;4.22;2.20;;;25.80;39.20;;;;;;10152886;28;20029;-60
2022/04/13 17:27:08;;;;;;;5.57;3.45;;;25.30;39.70;;;;;;10154685;28;20506;-59
2022/04/13 17:31:59;;;;;;;4.15;1.48;;;24.90;40.50;;;;;;10172570;28;20560;-59
2022/04/13 17:36:50;;;;;;;6.45;2.40;;;24.60;40.90;;;;;;10181064;28;20071;-60
2022/04/13 17:41:41;;;;;;;5.25;2.60;;;24.40;41.40;;;;;;10165207;28;20036;-63
2022/04/13 17:46:31;;;;;;;6.47;2.20;;;24.20;41.90;;;;;;10170401;28;20108;-59
2022/04/13 17:51:22;;;;;;;3.80;1.27;;;24.20;42.40;;;;;;10145818;28;20032;-61
2022/04/13 17:56:13;;;;;;;7.55;2.50;;;24.10;43.00;;;;;;10164805;28;20028;-61
2022/04/13 18:01:04;;;;;;;7.78;2.90;;;23.90;43.50;;;;;;10147764;28;20036;-60
2022/04/13 18:05:55;;;;;;;5.65;2.70;;;23.80;44.00;;;;;;10183024;28;20050;-60
2022/04/13 18:10:46;;;;;;;7.57;2.17;;;23.50;44.40;;;;;;10198461;28;20032;-60
2022/04/13 18:15:38;;;;;;;4.32;1.67;;;23.30;44.90;;;;;;10155156;28;20511;-61
2022/04/13 18:20:29;;;;;;;6.85;2.15;;;23.30;45.40;;;;;;10173026;28;20494;-61
2022/04/13 18:25:19;;;;;;;8.63;2.45;;;23.10;45.80;;;;;;10147130;28;20032;-61
2022/04/13 18:30:11;;;;;;;7.90;2.10;;;23.00;46.20;;;;;;10170108;28;20052;-60
2022/04/13 18:35:04;;;;;;;5.40;2.45;;;22.90;46.50;;;;;;10179548;28;20025;-61
2022/04/13 18:39:55;;;;;;;6.70;2.30;;;22.80;46.90;;;;;;10181936;28;20063;-61
2022/04/13 18:44:46;;;;;;;6.45;2.70;;;22.50;47.50;;;;;;10175820;28;20013;-61
2022/04/13 18:49:38;;;;;;;6.50;1.90;;;22.60;47.40;;;;;;10201100;28;20028;-60
2022/04/13 18:54:29;;;;;;;3.28;2.28;;;22.40;47.60;;;;;;10182373;28;20044;-61
2022/04/13 18:59:20;;;;;;;4.82;1.80;;;22.20;48.10;;;;;;10144090;28;20119;-60
2022/04/13 19:04:11;;;;;;;9.55;3.25;;;22.10;48.40;;;;;;10182174;28;20087;-61
2022/04/13 19:09:02;;;;;;;4.95;2.80;;;21.90;48.60;;;;;;10170640;28;20082;-59
2022/04/13 19:13:54;;;;;;;5.82;2.60;;;21.90;48.90;;;;;;10205538;28;20020;-59
2022/04/13 19:18:45;;;;;;;6.40;2.60;;;21.80;49.10;;;;;;10196379;28;20107;-60
2022/04/13 19:23:36;;;;;;;7.03;2.95;;;21.80;49.40;;;;;;10155178;28;20118;-60
2022/04/13 19:28:27;;;;;;;13.35;4.53;;;21.60;49.90;;;;;;10168710;28;20600;-60
2022/04/13 19:33:18;;;;;;;6.68;2.40;;;21.40;50.20;;;;;;10149673;28;20036;-62
2022/04/13 19:38:09;;;;;;;7.13;2.97;;;21.40;50.50;;;;;;10177691;28;20486;-62
2022/04/13 19:43:00;;;;;;;6.32;2.08;;;21.20;51.00;;;;;;10142447;28;20036;-62
2022/04/13 19:47:50;;;;;;;5.50;2.35;;;21.10;51.30;;;;;;10181495;28;20039;-59
2022/04/13 19:52:41;;;;;;;3.50;1.85;;;21.10;51.60;;;;;;10171234;28;20032;-62
2022/04/13 19:57:32;;;;;;;4.70;1.95;;;21.10;51.50;;;;;;10157132;28;20074;-61
2022/04/13 20:02:23;;;;;;;5.22;3.22;;;21.00;51.60;;;;;;10179349;28;20334;-60
2022/04/13 20:07:13;;;;;;;6.65;2.97;;;21.10;52.20;;;;;;10194958;28;20475;-59
2022/04/13 20:12:04;;;;;;;10.88;2.80;;;20.90;51.60;;;;;;10203581;28;20051;-60
2022/04/13 20:16:55;;;;;;;5.90;1.65;;;20.80;51.90;;;;;;10194953;28;20432;-59
2022/04/13 20:21:46;;;;;;;6.03;1.52;;;20.90;51.70;;;;;;10182135;28;20138;-59
2022/04/13 20:26:37;;;;;;;4.05;1.40;;;20.80;51.70;;;;;;10163884;28;20028;-61
2022/04/13 20:31:29;;;;;;;4.97;2.25;;;20.80;51.80;;;;;;10172480;28;20439;-60
2022/04/13 20:36:19;;;;;;;5.30;2.15;;;20.60;51.90;;;;;;10183772;28;20032;-59
2022/04/13 20:41:10;;;;;;;5.13;2.03;;;20.50;52.00;;;;;;10185198;28;20043;-60
2022/04/13 20:46:01;;;;;;;8.60;2.33;;;20.40;52.20;;;;;;10175111;28;20052;-61
2022/04/13 20:50:52;;;;;;;6.43;3.28;;;20.40;52.30;;;;;;10176575;28;20063;-60
2022/04/13 20:55:42;;;;;;;7.20;2.40;;;20.40;52.30;;;;;;10164698;28;20063;-58
2022/04/13 21:00:35;;;;;;;5.60;2.00;;;20.50;52.50;;;;;;10176988;28;20043;-60
2022/04/13 21:05:26;;;;;;;5.30;2.33;;;20.30;52.50;;;;;;10185609;28;20119;-61
2022/04/13 21:10:16;;;;;;;3.63;2.45;;;20.30;52.80;;;;;;10181674;28;20028;-59
2022/04/13 21:15:08;;;;;;;5.97;1.75;;;20.30;53.10;;;;;;10179871;28;20042;-60
2022/04/13 21:19:59;;;;;;;5.70;1.90;;;20.20;53.30;;;;;;10179333;28;20469;-61
2022/04/13 21:24:49;;;;;;;4.43;1.70;;;20.20;53.80;;;;;;10153703;28;20016;-62
2022/04/13 21:29:40;;;;;;;3.05;2.05;;;20.10;53.40;;;;;;10160455;28;20041;-59
2022/04/13 21:34:31;;;;;;;4.70;2.00;;;20.10;53.80;;;;;;10176790;28;20549;-60
2022/04/13 21:39:22;;;;;;;9.32;1.90;;;20.10;54.50;;;;;;10176533;28;20036;-59
2022/04/13 21:44:12;;;;;;;8.52;3.30;;;20.00;54.00;;;;;;10167324;28;20040;-59
2022/04/13 21:49:03;;;;;;;2.33;1.50;;;19.90;54.20;;;;;;10193668;28;20032;-59
2022/04/13 21:53:54;;;;;;;4.10;2.30;;;19.90;54.30;;;;;;10199438;28;20515;-61
2022/04/13 21:58:45;;;;;;;5.80;1.80;;;19.80;54.70;;;;;;10149060;28;20029;-59
2022/04/13 22:03:35;;;;;;;4.78;1.80;;;19.80;55.00;;;;;;10171974;28;20039;-61
2022/04/13 22:08:26;;;;;;;3.28;1.80;;;19.70;55.10;;;;;;10188918;28;20555;-58
2022/04/13 22:13:17;;;;;;;5.38;1.85;;;19.70;55.50;;;;;;10183849;28;20086;-61
2022/04/13 22:18:09;;;;;;;3.88;2.10;;;19.60;55.60;;;;;;10192584;28;20032;-60
2022/04/13 22:23:01;;;;;;;6.25;1.85;;;19.60;56.00;;;;;;10165271;28;20024;-60
2022/04/13 22:27:52;;;;;;;6.90;2.25;;;19.40;56.40;;;;;;10162714;28;20064;-61
2022/04/13 22:32:43;;;;;;;3.00;1.60;;;19.40;56.60;;;;;;10173686;28;20031;-61
2022/04/13 22:37:33;;;;;;;4.68;2.03;;;19.40;56.80;;;;;;10174294;28;20028;-60
2022/04/13 22:42:24;;;;;;;3.72;1.80;;;19.40;57.00;;;;;;10173170;28;20035;-59
2022/04/13 22:47:15;;;;;;;6.65;2.08;;;19.30;57.30;;;;;;10188943;28;20164;-61
2022/04/13 22:52:06;;;;;;;3.90;1.92;;;19.20;57.60;;;;;;10188189;28;20076;-60
2022/04/13 22:56:57;;;;;;;4.60;1.85;;;19.20;58.20;;;;;;10166318;28;20512;-59
2022/04/13 23:01:47;;;;;;;3.50;1.67;;;19.20;58.00;;;;;;10165086;28;20047;-60
2022/04/13 23:06:38;;;;;;;6.20;2.25;;;19.10;58.30;;;;;;10179866;28;20027;-60
2022/04/13 23:11:29;;;;;;;6.47;2.63;;;19.10;58.70;;;;;;10193409;28;20110;-60
2022/04/13 23:16:20;;;;;;;4.93;2.20;;;19.10;58.90;;;;;;10197262;28;20108;-60
2022/04/13 23:21:11;;;;;;;5.07;2.13;;;19.10;59.20;;;;;;10172837;28;20044;-59
2022/04/13 23:26:01;;;;;;;5.60;1.58;;;19.10;59.40;;;;;;10172150;28;20024;-59
2022/04/13 23:30:52;;;;;;;5.72;2.17;;;19.10;59.50;;;;;;10172340;28;20104;-60
2022/04/13 23:35:43;;;;;;;2.85;2.10;;;18.90;60.20;;;;;;10171905;28;20024;-59
2022/04/13 23:40:34;;;;;;;6.88;2.10;;;18.80;60.50;;;;;;10171605;28;20502;-59
2022/04/13 23:45:24;;;;;;;11.55;2.20;;;18.80;60.90;;;;;;10174570;28;20072;-59
2022/04/13 23:50:19;;;;;;;6.78;2.20;;;18.80;61.10;;;;;;10199340;28;20733;-59
2022/04/13 23:55:10;;;;;;;4.72;1.90;;;18.70;61.50;;;;;;10160944;28;20013;-59
